sensor_id;sensor_type;location;lat;lon;timestamp;P1;durP1;ratioP1;P2;durP2;ratioP2
6344;SDS011;3205;42.666;23.264;2022-07-22T00:01:06;5.47;;;3.53;;
6344;SDS011;3205;42.666;23.264;2022-07-22T00:03:33;4.78;;;4.25;;
6344;SDS011;3205;42.666;23.264;2022-07-22T00:05:59;6.20;;;3.92;;
6344;SDS011;3205;42.666;23.264;2022-07-22T00:08:26;5.43;;;3.47;;
6344;SDS011;3205;42.666;23.264;2022-07-22T00:10:53;6.70;;;3.92;;
6344;SDS011;3205;42.666;23.264;2022-07-22T00:13:21;5.05;;;3.30;;
6344;SDS011;3205;42.666;23.264;2022-07-22T00:15:47;5.93;;;4.03;;
6344;SDS011;3205;42.666;23.264;2022-07-22T00:18:14;6.90;;;3.75;;
6344;SDS011;3205;42.666;23.264;2022-07-22T00:20:41;6.68;;;3.85;;
6344;SDS011;3205;42.666;23.264;2022-07-22T00:23:08;8.45;;;3.83;;
6344;SDS011;3205;42.666;23.264;2022-07-22T00:25:35;8.40;;;4.32;;
6344;SDS011;3205;42.666;23.264;2022-07-22T00:28:01;13.07;;;8.10;;
6344;SDS011;3205;42.666;23.264;2022-07-22T00:30:29;5.25;;;3.92;;
6344;SDS011;3205;42.666;23.264;2022-07-22T00:32:56;7.82;;;4.05;;
6344;SDS011;3205;42.666;23.264;2022-07-22T00:35:23;6.88;;;3.80;;
6344;SDS011;3205;42.666;23.264;2022-07-22T00:37:49;6.03;;;3.85;;
6344;SDS011;3205;42.666;23.264;2022-07-22T00:40:16;6.35;;;4.00;;
6344;SDS011;3205;42.666;23.264;2022-07-22T00:42:44;6.82;;;3.58;;
6344;SDS011;3205;42.666;23.264;2022-07-22T00:45:11;7.63;;;4.15;;
6344;SDS011;3205;42.666;23.264;2022-07-22T00:47:40;10.80;;;4.22;;
6344;SDS011;3205;42.666;23.264;2022-07-22T00:50:07;6.22;;;4.18;;
6344;SDS011;3205;42.666;23.264;2022-07-22T00:52:34;6.30;;;3.80;;
6344;SDS011;3205;42.666;23.264;2022-07-22T00:55:01;10.65;;;4.15;;
6344;SDS011;3205;42.666;23.264;2022-07-22T00:57:28;5.82;;;4.05;;
6344;SDS011;3205;42.666;23.264;2022-07-22T00:59:55;6.53;;;4.38;;
6344;SDS011;3205;42.666;23.264;2022-07-22T01:02:21;11.05;;;4.70;;
6344;SDS011;3205;42.666;23.264;2022-07-22T01:04:49;10.75;;;4.90;;
6344;SDS011;3205;42.666;23.264;2022-07-22T01:07:16;5.40;;;4.90;;
6344;SDS011;3205;42.666;23.264;2022-07-22T01:09:43;11.57;;;4.80;;
6344;SDS011;3205;42.666;23.264;2022-07-22T01:12:09;12.10;;;4.90;;
6344;SDS011;3205;42.666;23.264;2022-07-22T01:14:36;11.85;;;4.63;;
6344;SDS011;3205;42.666;23.264;2022-07-22T01:17:03;9.07;;;5.00;;
6344;SDS011;3205;42.666;23.264;2022-07-22T01:19:30;11.85;;;4.88;;
6344;SDS011;3205;42.666;23.264;2022-07-22T01:21:58;10.45;;;4.68;;
6344;SDS011;3205;42.666;23.264;2022-07-22T01:24:24;9.63;;;4.72;;
6344;SDS011;3205;42.666;23.264;2022-07-22T01:26:51;13.52;;;5.45;;
6344;SDS011;3205;42.666;23.264;2022-07-22T01:29:17;15.43;;;5.93;;
6344;SDS011;3205;42.666;23.264;2022-07-22T01:31:44;11.82;;;5.88;;
6344;SDS011;3205;42.666;23.264;2022-07-22T01:34:10;12.73;;;5.32;;
6344;SDS011;3205;42.666;23.264;2022-07-22T01:36:36;9.90;;;4.90;;
6344;SDS011;3205;42.666;23.264;2022-07-22T01:39:04;8.70;;;4.88;;
6344;SDS011;3205;42.666;23.264;2022-07-22T01:41:31;8.75;;;4.78;;
6344;SDS011;3205;42.666;23.264;2022-07-22T01:43:58;9.02;;;5.05;;
6344;SDS011;3205;42.666;23.264;2022-07-22T01:46:24;8.07;;;5.47;;
6344;SDS011;3205;42.666;23.264;2022-07-22T01:48:52;12.32;;;5.03;;
6344;SDS011;3205;42.666;23.264;2022-07-22T01:51:19;11.70;;;5.55;;
6344;SDS011;3205;42.666;23.264;2022-07-22T01:53:46;11.27;;;5.15;;
6344;SDS011;3205;42.666;23.264;2022-07-22T01:56:14;7.30;;;4.82;;
6344;SDS011;3205;42.666;23.264;2022-07-22T01:58:40;11.52;;;5.63;;
6344;SDS011;3205;42.666;23.264;2022-07-22T02:01:07;5.88;;;4.85;;
6344;SDS011;3205;42.666;23.264;2022-07-22T02:03:35;8.30;;;4.80;;
6344;SDS011;3205;42.666;23.264;2022-07-22T02:06:01;8.48;;;4.70;;
6344;SDS011;3205;42.666;23.264;2022-07-22T02:08:28;8.73;;;5.15;;
6344;SDS011;3205;42.666;23.264;2022-07-22T02:10:55;12.23;;;5.03;;
6344;SDS011;3205;42.666;23.264;2022-07-22T02:13:23;14.80;;;5.85;;
6344;SDS011;3205;42.666;23.264;2022-07-22T02:15:50;11.52;;;5.88;;
6344;SDS011;3205;42.666;23.264;2022-07-22T02:18:17;13.57;;;5.28;;
6344;SDS011;3205;42.666;23.264;2022-07-22T02:20:44;7.38;;;5.20;;
6344;SDS011;3205;42.666;23.264;2022-07-22T02:23:11;8.45;;;4.95;;
6344;SDS011;3205;42.666;23.264;2022-07-22T02:25:37;7.60;;;4.93;;
6344;SDS011;3205;42.666;23.264;2022-07-22T02:28:04;12.77;;;4.85;;
6344;SDS011;3205;42.666;23.264;2022-07-22T02:30:32;10.85;;;5.57;;
6344;SDS011;3205;42.666;23.264;2022-07-22T02:32:59;10.88;;;5.43;;
6344;SDS011;3205;42.666;23.264;2022-07-22T02:35:25;10.13;;;5.20;;
6344;SDS011;3205;42.666;23.264;2022-07-22T02:37:54;13.88;;;5.60;;
6344;SDS011;3205;42.666;23.264;2022-07-22T02:40:21;18.20;;;5.55;;
6344;SDS011;3205;42.666;23.264;2022-07-22T02:42:48;10.95;;;5.35;;
6344;SDS011;3205;42.666;23.264;2022-07-22T02:45:15;11.23;;;5.80;;
6344;SDS011;3205;42.666;23.264;2022-07-22T02:47:48;21.75;;;5.68;;
6344;SDS011;3205;42.666;23.264;2022-07-22T02:50:14;10.20;;;5.00;;
6344;SDS011;3205;42.666;23.264;2022-07-22T02:52:41;10.88;;;5.47;;
6344;SDS011;3205;42.666;23.264;2022-07-22T02:55:08;8.93;;;5.50;;
6344;SDS011;3205;42.666;23.264;2022-07-22T02:57:34;14.00;;;5.72;;
6344;SDS011;3205;42.666;23.264;2022-07-22T03:00:01;15.98;;;6.13;;
6344;SDS011;3205;42.666;23.264;2022-07-22T03:02:28;7.65;;;5.00;;
6344;SDS011;3205;42.666;23.264;2022-07-22T03:04:56;13.43;;;6.00;;
6344;SDS011;3205;42.666;23.264;2022-07-22T03:07:22;10.05;;;5.10;;
6344;SDS011;3205;42.666;23.264;2022-07-22T03:09:50;15.60;;;5.53;;
6344;SDS011;3205;42.666;23.264;2022-07-22T03:12:19;18.75;;;6.32;;
6344;SDS011;3205;42.666;23.264;2022-07-22T03:14:46;13.35;;;5.40;;
6344;SDS011;3205;42.666;23.264;2022-07-22T03:17:12;12.18;;;5.20;;
6344;SDS011;3205;42.666;23.264;2022-07-22T03:19:39;8.02;;;5.38;;
6344;SDS011;3205;42.666;23.264;2022-07-22T03:22:07;11.77;;;5.05;;
6344;SDS011;3205;42.666;23.264;2022-07-22T03:24:34;13.38;;;5.07;;
6344;SDS011;3205;42.666;23.264;2022-07-22T03:27:02;7.95;;;4.72;;
6344;SDS011;3205;42.666;23.264;2022-07-22T03:29:28;9.02;;;5.28;;
6344;SDS011;3205;42.666;23.264;2022-07-22T03:31:55;10.00;;;5.38;;
6344;SDS011;3205;42.666;23.264;2022-07-22T03:34:21;9.32;;;4.82;;
6344;SDS011;3205;42.666;23.264;2022-07-22T03:36:48;8.95;;;5.22;;
6344;SDS011;3205;42.666;23.264;2022-07-22T03:39:16;9.30;;;5.18;;
6344;SDS011;3205;42.666;23.264;2022-07-22T03:41:42;9.48;;;5.65;;
6344;SDS011;3205;42.666;23.264;2022-07-22T03:44:09;13.10;;;4.95;;
6344;SDS011;3205;42.666;23.264;2022-07-22T03:46:36;9.20;;;4.55;;
6344;SDS011;3205;42.666;23.264;2022-07-22T03:49:02;16.17;;;5.82;;
6344;SDS011;3205;42.666;23.264;2022-07-22T03:51:29;9.57;;;5.13;;
6344;SDS011;3205;42.666;23.264;2022-07-22T03:53:56;11.98;;;6.28;;
6344;SDS011;3205;42.666;23.264;2022-07-22T03:56:24;17.67;;;6.15;;
6344;SDS011;3205;42.666;23.264;2022-07-22T03:58:51;10.70;;;5.95;;
6344;SDS011;3205;42.666;23.264;2022-07-22T04:01:17;16.02;;;6.88;;
6344;SDS011;3205;42.666;23.264;2022-07-22T04:03:43;15.57;;;6.65;;
6344;SDS011;3205;42.666;23.264;2022-07-22T04:06:10;10.85;;;5.90;;
6344;SDS011;3205;42.666;23.264;2022-07-22T04:08:37;11.27;;;7.13;;
6344;SDS011;3205;42.666;23.264;2022-07-22T04:11:04;18.40;;;6.35;;
6344;SDS011;3205;42.666;23.264;2022-07-22T04:13:32;21.85;;;6.80;;
6344;SDS011;3205;42.666;23.264;2022-07-22T04:15:59;16.10;;;7.50;;
6344;SDS011;3205;42.666;23.264;2022-07-22T04:18:26;12.35;;;6.10;;
6344;SDS011;3205;42.666;23.264;2022-07-22T04:20:52;14.38;;;6.43;;
6344;SDS011;3205;42.666;23.264;2022-07-22T04:23:19;14.65;;;6.60;;
6344;SDS011;3205;42.666;23.264;2022-07-22T04:25:46;13.55;;;6.68;;
6344;SDS011;3205;42.666;23.264;2022-07-22T04:28:12;14.60;;;6.50;;
6344;SDS011;3205;42.666;23.264;2022-07-22T04:30:40;14.13;;;6.57;;
6344;SDS011;3205;42.666;23.264;2022-07-22T04:33:06;14.90;;;6.78;;
6344;SDS011;3205;42.666;23.264;2022-07-22T04:35:33;16.50;;;6.75;;
6344;SDS011;3205;42.666;23.264;2022-07-22T04:38:00;11.85;;;5.95;;
6344;SDS011;3205;42.666;23.264;2022-07-22T04:40:27;13.13;;;5.38;;
6344;SDS011;3205;42.666;23.264;2022-07-22T04:42:53;10.80;;;6.50;;
6344;SDS011;3205;42.666;23.264;2022-07-22T04:45:20;12.60;;;6.30;;
6344;SDS011;3205;42.666;23.264;2022-07-22T04:47:48;23.58;;;6.53;;
6344;SDS011;3205;42.666;23.264;2022-07-22T04:50:14;18.83;;;5.72;;
6344;SDS011;3205;42.666;23.264;2022-07-22T04:52:43;15.15;;;6.38;;
6344;SDS011;3205;42.666;23.264;2022-07-22T04:55:10;13.90;;;5.90;;
6344;SDS011;3205;42.666;23.264;2022-07-22T04:57:36;10.95;;;6.40;;
6344;SDS011;3205;42.666;23.264;2022-07-22T05:00:03;16.33;;;6.63;;
6344;SDS011;3205;42.666;23.264;2022-07-22T05:02:30;13.60;;;5.55;;
6344;SDS011;3205;42.666;23.264;2022-07-22T05:04:58;11.23;;;6.07;;
6344;SDS011;3205;42.666;23.264;2022-07-22T05:07:26;15.13;;;6.38;;
6344;SDS011;3205;42.666;23.264;2022-07-22T05:09:52;14.27;;;6.25;;
6344;SDS011;3205;42.666;23.264;2022-07-22T05:12:19;11.73;;;6.22;;
6344;SDS011;3205;42.666;23.264;2022-07-22T05:14:45;12.63;;;6.53;;
6344;SDS011;3205;42.666;23.264;2022-07-22T05:17:12;12.75;;;5.30;;
6344;SDS011;3205;42.666;23.264;2022-07-22T05:19:39;14.50;;;6.10;;
6344;SDS011;3205;42.666;23.264;2022-07-22T05:22:08;12.07;;;5.38;;
6344;SDS011;3205;42.666;23.264;2022-07-22T05:24:35;13.57;;;6.05;;
6344;SDS011;3205;42.666;23.264;2022-07-22T05:27:03;10.63;;;5.30;;
6344;SDS011;3205;42.666;23.264;2022-07-22T05:29:29;17.05;;;6.15;;
6344;SDS011;3205;42.666;23.264;2022-07-22T05:31:56;12.27;;;5.60;;
6344;SDS011;3205;42.666;23.264;2022-07-22T05:34:22;16.27;;;5.32;;
6344;SDS011;3205;42.666;23.264;2022-07-22T05:36:50;13.70;;;5.90;;
6344;SDS011;3205;42.666;23.264;2022-07-22T05:39:18;13.63;;;5.70;;
6344;SDS011;3205;42.666;23.264;2022-07-22T05:41:44;10.52;;;5.22;;
6344;SDS011;3205;42.666;23.264;2022-07-22T05:44:11;14.98;;;5.38;;
6344;SDS011;3205;42.666;23.264;2022-07-22T05:46:37;13.48;;;5.93;;
6344;SDS011;3205;42.666;23.264;2022-07-22T05:49:05;14.90;;;5.35;;
6344;SDS011;3205;42.666;23.264;2022-07-22T05:51:31;18.08;;;5.35;;
6344;SDS011;3205;42.666;23.264;2022-07-22T05:53:59;12.63;;;5.63;;
6344;SDS011;3205;42.666;23.264;2022-07-22T05:56:30;9.95;;;5.38;;
6344;SDS011;3205;42.666;23.264;2022-07-22T05:58:57;9.52;;;5.20;;
6344;SDS011;3205;42.666;23.264;2022-07-22T06:01:24;12.20;;;5.57;;
6344;SDS011;3205;42.666;23.264;2022-07-22T06:03:50;16.33;;;5.53;;
6344;SDS011;3205;42.666;23.264;2022-07-22T06:06:17;15.25;;;5.80;;
6344;SDS011;3205;42.666;23.264;2022-07-22T06:08:43;11.10;;;5.20;;
6344;SDS011;3205;42.666;23.264;2022-07-22T06:11:11;16.33;;;5.75;;
6344;SDS011;3205;42.666;23.264;2022-07-22T06:13:39;24.73;;;6.57;;
6344;SDS011;3205;42.666;23.264;2022-07-22T06:16:05;18.75;;;6.88;;
6344;SDS011;3205;42.666;23.264;2022-07-22T06:18:32;24.08;;;5.95;;
6344;SDS011;3205;42.666;23.264;2022-07-22T06:20:58;28.92;;;6.43;;
6344;SDS011;3205;42.666;23.264;2022-07-22T06:23:26;25.63;;;6.03;;
6344;SDS011;3205;42.666;23.264;2022-07-22T06:25:53;20.55;;;5.70;;
6344;SDS011;3205;42.666;23.264;2022-07-22T06:28:19;14.55;;;5.35;;
6344;SDS011;3205;42.666;23.264;2022-07-22T06:30:47;13.88;;;5.40;;
6344;SDS011;3205;42.666;23.264;2022-07-22T06:33:13;19.50;;;5.75;;
6344;SDS011;3205;42.666;23.264;2022-07-22T06:35:40;15.35;;;6.13;;
6344;SDS011;3205;42.666;23.264;2022-07-22T06:38:07;15.63;;;5.13;;
6344;SDS011;3205;42.666;23.264;2022-07-22T06:40:34;14.82;;;5.40;;
6344;SDS011;3205;42.666;23.264;2022-07-22T06:43:02;9.60;;;4.88;;
6344;SDS011;3205;42.666;23.264;2022-07-22T06:45:28;9.23;;;4.82;;
6344;SDS011;3205;42.666;23.264;2022-07-22T06:47:56;14.38;;;5.43;;
6344;SDS011;3205;42.666;23.264;2022-07-22T06:50:23;12.35;;;5.03;;
6344;SDS011;3205;42.666;23.264;2022-07-22T06:52:51;11.48;;;5.10;;
6344;SDS011;3205;42.666;23.264;2022-07-22T06:55:17;8.60;;;4.63;;
6344;SDS011;3205;42.666;23.264;2022-07-22T06:57:44;10.77;;;5.10;;
6344;SDS011;3205;42.666;23.264;2022-07-22T07:00:12;10.75;;;5.07;;
6344;SDS011;3205;42.666;23.264;2022-07-22T07:02:39;9.98;;;4.97;;
6344;SDS011;3205;42.666;23.264;2022-07-22T07:05:08;13.90;;;4.82;;
6344;SDS011;3205;42.666;23.264;2022-07-22T07:07:35;9.15;;;4.72;;
6344;SDS011;3205;42.666;23.264;2022-07-22T07:10:02;6.75;;;4.30;;
6344;SDS011;3205;42.666;23.264;2022-07-22T07:12:29;9.60;;;4.70;;
6344;SDS011;3205;42.666;23.264;2022-07-22T07:14:55;8.68;;;4.65;;
6344;SDS011;3205;42.666;23.264;2022-07-22T07:17:22;8.85;;;5.05;;
6344;SDS011;3205;42.666;23.264;2022-07-22T07:19:49;7.60;;;4.75;;
6344;SDS011;3205;42.666;23.264;2022-07-22T07:22:17;8.38;;;4.72;;
6344;SDS011;3205;42.666;23.264;2022-07-22T07:24:43;7.65;;;4.82;;
6344;SDS011;3205;42.666;23.264;2022-07-22T07:27:10;8.43;;;4.65;;
6344;SDS011;3205;42.666;23.264;2022-07-22T07:29:37;6.53;;;4.57;;
6344;SDS011;3205;42.666;23.264;2022-07-22T07:32:04;13.85;;;5.13;;
6344;SDS011;3205;42.666;23.264;2022-07-22T07:34:31;9.05;;;4.72;;
6344;SDS011;3205;42.666;23.264;2022-07-22T07:36:58;23.10;;;5.95;;
6344;SDS011;3205;42.666;23.264;2022-07-22T07:39:26;8.30;;;4.55;;
6344;SDS011;3205;42.666;23.264;2022-07-22T07:41:53;6.82;;;4.32;;
6344;SDS011;3205;42.666;23.264;2022-07-22T07:44:20;8.50;;;4.55;;
6344;SDS011;3205;42.666;23.264;2022-07-22T07:46:46;13.77;;;5.07;;
6344;SDS011;3205;42.666;23.264;2022-07-22T07:49:13;5.90;;;4.45;;
6344;SDS011;3205;42.666;23.264;2022-07-22T07:51:40;8.45;;;4.60;;
6344;SDS011;3205;42.666;23.264;2022-07-22T07:54:06;10.50;;;4.20;;
6344;SDS011;3205;42.666;23.264;2022-07-22T07:56:34;11.30;;;4.70;;
6344;SDS011;3205;42.666;23.264;2022-07-22T07:59:01;5.00;;;4.15;;
6344;SDS011;3205;42.666;23.264;2022-07-22T08:01:27;8.52;;;4.50;;
6344;SDS011;3205;42.666;23.264;2022-07-22T08:03:54;8.85;;;4.45;;
6344;SDS011;3205;42.666;23.264;2022-07-22T08:06:20;12.10;;;4.68;;
6344;SDS011;3205;42.666;23.264;2022-07-22T08:08:46;6.45;;;4.35;;
6344;SDS011;3205;42.666;23.264;2022-07-22T08:11:13;9.10;;;4.82;;
6344;SDS011;3205;42.666;23.264;2022-07-22T08:13:41;7.93;;;4.45;;
6344;SDS011;3205;42.666;23.264;2022-07-22T08:16:08;5.28;;;4.70;;
6344;SDS011;3205;42.666;23.264;2022-07-22T08:18:34;7.30;;;4.85;;
6344;SDS011;3205;42.666;23.264;2022-07-22T08:21:01;6.32;;;4.97;;
6344;SDS011;3205;42.666;23.264;2022-07-22T08:23:27;7.80;;;4.63;;
6344;SDS011;3205;42.666;23.264;2022-07-22T08:25:54;6.95;;;4.70;;
6344;SDS011;3205;42.666;23.264;2022-07-22T08:28:20;7.68;;;4.90;;
6344;SDS011;3205;42.666;23.264;2022-07-22T08:30:48;9.63;;;4.65;;
6344;SDS011;3205;42.666;23.264;2022-07-22T08:33:15;7.53;;;4.68;;
6344;SDS011;3205;42.666;23.264;2022-07-22T08:35:41;7.28;;;4.45;;
6344;SDS011;3205;42.666;23.264;2022-07-22T08:38:08;7.22;;;4.50;;
6344;SDS011;3205;42.666;23.264;2022-07-22T08:40:34;12.95;;;4.30;;
6344;SDS011;3205;42.666;23.264;2022-07-22T08:43:01;12.07;;;4.53;;
6344;SDS011;3205;42.666;23.264;2022-07-22T08:45:28;6.32;;;3.97;;
6344;SDS011;3205;42.666;23.264;2022-07-22T08:47:56;5.45;;;4.22;;
6344;SDS011;3205;42.666;23.264;2022-07-22T08:50:23;6.90;;;4.43;;
6344;SDS011;3205;42.666;23.264;2022-07-22T08:52:51;5.63;;;4.25;;
6344;SDS011;3205;42.666;23.264;2022-07-22T08:55:18;9.63;;;4.32;;
6344;SDS011;3205;42.666;23.264;2022-07-22T08:57:44;6.50;;;4.53;;
6344;SDS011;3205;42.666;23.264;2022-07-22T09:00:12;11.32;;;4.50;;
6344;SDS011;3205;42.666;23.264;2022-07-22T09:02:39;20.98;;;5.53;;
6344;SDS011;3205;42.666;23.264;2022-07-22T09:05:08;5.78;;;4.38;;
6344;SDS011;3205;42.666;23.264;2022-07-22T09:07:36;5.15;;;3.92;;
6344;SDS011;3205;42.666;23.264;2022-07-22T09:10:03;7.93;;;4.65;;
6344;SDS011;3205;42.666;23.264;2022-07-22T09:12:30;4.10;;;3.72;;
6344;SDS011;3205;42.666;23.264;2022-07-22T09:14:58;5.38;;;4.47;;
6344;SDS011;3205;42.666;23.264;2022-07-22T09:17:26;7.15;;;4.28;;
6344;SDS011;3205;42.666;23.264;2022-07-22T09:19:53;9.02;;;4.05;;
6344;SDS011;3205;42.666;23.264;2022-07-22T09:27:46;6.53;;;4.25;;
6344;SDS011;3205;42.666;23.264;2022-07-22T09:30:13;4.53;;;3.95;;
6344;SDS011;3205;42.666;23.264;2022-07-22T09:32:40;5.78;;;3.55;;
6344;SDS011;3205;42.666;23.264;2022-07-22T09:35:07;8.32;;;4.03;;
6344;SDS011;3205;42.666;23.264;2022-07-22T09:37:35;10.70;;;4.75;;
6344;SDS011;3205;42.666;23.264;2022-07-22T09:40:14;4.97;;;4.47;;
6344;SDS011;3205;42.666;23.264;2022-07-22T09:42:46;5.65;;;4.97;;
6344;SDS011;3205;42.666;23.264;2022-07-22T09:45:13;7.90;;;3.88;;
6344;SDS011;3205;42.666;23.264;2022-07-22T09:47:41;4.68;;;3.47;;
6344;SDS011;3205;42.666;23.264;2022-07-22T09:50:15;5.57;;;3.67;;
6344;SDS011;3205;42.666;23.264;2022-07-22T09:52:43;8.93;;;4.28;;
6344;SDS011;3205;42.666;23.264;2022-07-22T09:55:09;7.78;;;3.75;;
6344;SDS011;3205;42.666;23.264;2022-07-22T09:57:36;7.03;;;4.07;;
6344;SDS011;3205;42.666;23.264;2022-07-22T10:00:05;6.82;;;3.80;;
6344;SDS011;3205;42.666;23.264;2022-07-22T10:02:33;9.32;;;4.57;;
6344;SDS011;3205;42.666;23.264;2022-07-22T10:05:01;10.93;;;5.10;;
6344;SDS011;3205;42.666;23.264;2022-07-22T10:07:28;8.02;;;4.40;;
6344;SDS011;3205;42.666;23.264;2022-07-22T10:09:55;13.32;;;4.45;;
6344;SDS011;3205;42.666;23.264;2022-07-22T10:12:21;5.15;;;3.88;;
6344;SDS011;3205;42.666;23.264;2022-07-22T10:14:48;4.28;;;3.85;;
6344;SDS011;3205;42.666;23.264;2022-07-22T10:17:16;8.02;;;3.85;;
6344;SDS011;3205;42.666;23.264;2022-07-22T10:19:42;7.88;;;3.90;;
6344;SDS011;3205;42.666;23.264;2022-07-22T10:24:58;7.22;;;4.20;;
6344;SDS011;3205;42.666;23.264;2022-07-22T10:30:07;22.98;;;6.63;;
6344;SDS011;3205;42.666;23.264;2022-07-22T10:32:36;18.90;;;9.05;;
6344;SDS011;3205;42.666;23.264;2022-07-22T10:35:19;22.55;;;8.10;;
6344;SDS011;3205;42.666;23.264;2022-07-22T10:37:47;28.10;;;11.35;;
6344;SDS011;3205;42.666;23.264;2022-07-22T10:40:15;21.48;;;9.27;;
6344;SDS011;3205;42.666;23.264;2022-07-22T10:45:29;6.40;;;3.85;;
6344;SDS011;3205;42.666;23.264;2022-07-22T10:47:58;5.43;;;3.65;;
6344;SDS011;3205;42.666;23.264;2022-07-22T10:53:23;7.95;;;5.22;;
6344;SDS011;3205;42.666;23.264;2022-07-22T10:58:48;9.07;;;4.43;;
6344;SDS011;3205;42.666;23.264;2022-07-22T11:01:16;4.75;;;3.80;;
6344;SDS011;3205;42.666;23.264;2022-07-22T11:03:45;12.45;;;6.97;;
6344;SDS011;3205;42.666;23.264;2022-07-22T11:06:20;6.68;;;4.32;;
6344;SDS011;3205;42.666;23.264;2022-07-22T11:08:47;7.97;;;4.45;;
6344;SDS011;3205;42.666;23.264;2022-07-22T11:11:14;6.10;;;4.40;;
6344;SDS011;3205;42.666;23.264;2022-07-22T11:13:41;5.60;;;4.50;;
6344;SDS011;3205;42.666;23.264;2022-07-22T11:16:15;7.30;;;5.50;;
6344;SDS011;3205;42.666;23.264;2022-07-22T11:18:51;7.75;;;4.63;;
6344;SDS011;3205;42.666;23.264;2022-07-22T11:21:19;8.18;;;7.00;;
6344;SDS011;3205;42.666;23.264;2022-07-22T11:23:47;9.85;;;6.10;;
6344;SDS011;3205;42.666;23.264;2022-07-22T11:26:14;8.25;;;5.70;;
6344;SDS011;3205;42.666;23.264;2022-07-22T11:28:42;6.57;;;4.18;;
6344;SDS011;3205;42.666;23.264;2022-07-22T11:31:09;9.57;;;5.13;;
6344;SDS011;3205;42.666;23.264;2022-07-22T11:33:36;9.80;;;5.22;;
6344;SDS011;3205;42.666;23.264;2022-07-22T11:36:05;5.82;;;4.25;;
6344;SDS011;3205;42.666;23.264;2022-07-22T11:38:41;4.82;;;3.83;;
6344;SDS011;3205;42.666;23.264;2022-07-22T11:41:10;11.27;;;4.20;;
6344;SDS011;3205;42.666;23.264;2022-07-22T11:43:39;7.40;;;3.78;;
6344;SDS011;3205;42.666;23.264;2022-07-22T11:46:06;7.63;;;3.97;;
6344;SDS011;3205;42.666;23.264;2022-07-22T11:48:33;4.93;;;4.15;;
6344;SDS011;3205;42.666;23.264;2022-07-22T11:50:59;6.82;;;3.90;;
6344;SDS011;3205;42.666;23.264;2022-07-22T11:53:27;5.95;;;3.38;;
6344;SDS011;3205;42.666;23.264;2022-07-22T11:55:56;8.05;;;4.15;;
6344;SDS011;3205;42.666;23.264;2022-07-22T11:58:33;4.72;;;3.58;;
6344;SDS011;3205;42.666;23.264;2022-07-22T12:01:01;16.58;;;4.63;;
6344;SDS011;3205;42.666;23.264;2022-07-22T12:03:27;11.20;;;4.82;;
6344;SDS011;3205;42.666;23.264;2022-07-22T12:05:54;5.75;;;3.70;;
6344;SDS011;3205;42.666;23.264;2022-07-22T12:08:21;7.03;;;3.90;;
6344;SDS011;3205;42.666;23.264;2022-07-22T12:10:49;11.23;;;4.50;;
6344;SDS011;3205;42.666;23.264;2022-07-22T12:13:15;8.00;;;4.55;;
6344;SDS011;3205;42.666;23.264;2022-07-22T12:15:42;4.95;;;4.35;;
6344;SDS011;3205;42.666;23.264;2022-07-22T12:18:16;6.28;;;4.15;;
6344;SDS011;3205;42.666;23.264;2022-07-22T12:20:43;4.82;;;4.00;;
6344;SDS011;3205;42.666;23.264;2022-07-22T12:23:09;7.93;;;3.75;;
6344;SDS011;3205;42.666;23.264;2022-07-22T12:25:50;5.80;;;4.50;;
6344;SDS011;3205;42.666;23.264;2022-07-22T12:28:18;7.00;;;4.82;;
6344;SDS011;3205;42.666;23.264;2022-07-22T12:30:47;10.48;;;4.45;;
6344;SDS011;3205;42.666;23.264;2022-07-22T12:33:16;7.97;;;4.38;;
6344;SDS011;3205;42.666;23.264;2022-07-22T12:35:42;7.38;;;4.10;;
6344;SDS011;3205;42.666;23.264;2022-07-22T12:38:10;5.35;;;4.45;;
6344;SDS011;3205;42.666;23.264;2022-07-22T12:40:37;6.43;;;4.43;;
6344;SDS011;3205;42.666;23.264;2022-07-22T12:43:05;8.00;;;4.35;;
6344;SDS011;3205;42.666;23.264;2022-07-22T12:45:34;6.50;;;4.15;;
6344;SDS011;3205;42.666;23.264;2022-07-22T12:48:05;9.40;;;4.10;;
6344;SDS011;3205;42.666;23.264;2022-07-22T12:50:33;9.93;;;4.50;;
6344;SDS011;3205;42.666;23.264;2022-07-22T12:53:01;7.47;;;4.68;;
6344;SDS011;3205;42.666;23.264;2022-07-22T12:55:29;6.65;;;4.63;;
6344;SDS011;3205;42.666;23.264;2022-07-22T12:57:56;4.07;;;3.67;;
6344;SDS011;3205;42.666;23.264;2022-07-22T13:00:25;9.13;;;3.92;;
6344;SDS011;3205;42.666;23.264;2022-07-22T13:02:52;4.25;;;3.85;;
6344;SDS011;3205;42.666;23.264;2022-07-22T13:05:18;10.73;;;4.70;;
6344;SDS011;3205;42.666;23.264;2022-07-22T13:07:45;5.82;;;4.47;;
6344;SDS011;3205;42.666;23.264;2022-07-22T13:10:12;6.60;;;3.35;;
6344;SDS011;3205;42.666;23.264;2022-07-22T13:12:40;6.47;;;4.10;;
6344;SDS011;3205;42.666;23.264;2022-07-22T13:15:08;5.93;;;4.60;;
6344;SDS011;3205;42.666;23.264;2022-07-22T13:17:36;8.35;;;4.35;;
6344;SDS011;3205;42.666;23.264;2022-07-22T13:20:03;9.90;;;5.28;;
6344;SDS011;3205;42.666;23.264;2022-07-22T13:22:31;6.22;;;4.50;;
6344;SDS011;3205;42.666;23.264;2022-07-22T13:24:59;7.13;;;4.38;;
6344;SDS011;3205;42.666;23.264;2022-07-22T13:27:25;9.73;;;4.32;;
6344;SDS011;3205;42.666;23.264;2022-07-22T13:29:51;6.05;;;4.25;;
6344;SDS011;3205;42.666;23.264;2022-07-22T13:32:18;7.13;;;4.10;;
6344;SDS011;3205;42.666;23.264;2022-07-22T13:34:46;4.97;;;3.70;;
6344;SDS011;3205;42.666;23.264;2022-07-22T13:37:14;5.20;;;4.30;;
6344;SDS011;3205;42.666;23.264;2022-07-22T13:39:41;8.68;;;4.53;;
6344;SDS011;3205;42.666;23.264;2022-07-22T13:42:10;7.70;;;4.18;;
6344;SDS011;3205;42.666;23.264;2022-07-22T13:44:37;10.73;;;3.90;;
6344;SDS011;3205;42.666;23.264;2022-07-22T13:47:04;12.90;;;4.72;;
6344;SDS011;3205;42.666;23.264;2022-07-22T13:49:30;8.50;;;4.60;;
6344;SDS011;3205;42.666;23.264;2022-07-22T13:51:58;13.65;;;4.38;;
6344;SDS011;3205;42.666;23.264;2022-07-22T13:54:25;5.57;;;4.00;;
6344;SDS011;3205;42.666;23.264;2022-07-22T13:56:52;8.68;;;4.07;;
6344;SDS011;3205;42.666;23.264;2022-07-22T13:59:19;9.77;;;4.78;;
6344;SDS011;3205;42.666;23.264;2022-07-22T14:01:45;5.68;;;4.10;;
6344;SDS011;3205;42.666;23.264;2022-07-22T14:04:12;13.25;;;5.20;;
6344;SDS011;3205;42.666;23.264;2022-07-22T14:06:40;8.65;;;4.25;;
6344;SDS011;3205;42.666;23.264;2022-07-22T14:09:08;6.90;;;3.85;;
6344;SDS011;3205;42.666;23.264;2022-07-22T14:11:34;5.45;;;3.70;;
6344;SDS011;3205;42.666;23.264;2022-07-22T14:14:01;4.28;;;3.88;;
6344;SDS011;3205;42.666;23.264;2022-07-22T14:16:29;4.85;;;3.65;;
6344;SDS011;3205;42.666;23.264;2022-07-22T14:19:02;9.50;;;4.25;;
6344;SDS011;3205;42.666;23.264;2022-07-22T14:21:31;5.45;;;4.07;;
6344;SDS011;3205;42.666;23.264;2022-07-22T14:23:59;6.25;;;4.13;;
6344;SDS011;3205;42.666;23.264;2022-07-22T14:26:27;8.73;;;4.43;;
6344;SDS011;3205;42.666;23.264;2022-07-22T14:28:55;5.78;;;4.15;;
6344;SDS011;3205;42.666;23.264;2022-07-22T14:31:21;8.13;;;4.05;;
6344;SDS011;3205;42.666;23.264;2022-07-22T14:33:48;5.80;;;3.60;;
6344;SDS011;3205;42.666;23.264;2022-07-22T14:36:15;14.73;;;5.15;;
6344;SDS011;3205;42.666;23.264;2022-07-22T14:38:42;13.82;;;4.47;;
6344;SDS011;3205;42.666;23.264;2022-07-22T14:41:10;11.02;;;4.00;;
6344;SDS011;3205;42.666;23.264;2022-07-22T14:43:38;7.13;;;3.67;;
6344;SDS011;3205;42.666;23.264;2022-07-22T14:46:05;9.20;;;4.07;;
6344;SDS011;3205;42.666;23.264;2022-07-22T14:48:32;4.60;;;4.03;;
6344;SDS011;3205;42.666;23.264;2022-07-22T14:50:59;6.47;;;4.00;;
6344;SDS011;3205;42.666;23.264;2022-07-22T14:53:25;7.57;;;3.58;;
6344;SDS011;3205;42.666;23.264;2022-07-22T14:55:52;9.55;;;4.35;;
6344;SDS011;3205;42.666;23.264;2022-07-22T14:58:20;14.60;;;4.88;;
6344;SDS011;3205;42.666;23.264;2022-07-22T15:00:47;7.22;;;4.03;;
6344;SDS011;3205;42.666;23.264;2022-07-22T15:03:15;7.95;;;4.57;;
6344;SDS011;3205;42.666;23.264;2022-07-22T15:05:43;9.10;;;3.80;;
6344;SDS011;3205;42.666;23.264;2022-07-22T15:08:09;4.35;;;3.72;;
6344;SDS011;3205;42.666;23.264;2022-07-22T15:10:36;8.52;;;4.07;;
6344;SDS011;3205;42.666;23.264;2022-07-22T15:13:03;4.18;;;3.33;;
6344;SDS011;3205;42.666;23.264;2022-07-22T15:15:29;7.13;;;3.88;;